Time,TemperatureF,DewpointF,PressureIn,WindDirection,WindDirectionDegrees,WindSpeedMPH,WindSpeedGustMPH,Humidity,HourlyPrecipIn,Conditions,Clouds,dailyrainin,SoftwareType,DateUTC
2013-08-13 00:01:00,66.2,57.7,29.92,North,0,0.0,0.0,74,0.00,,,0.00,WUHU216HW,2013-08-13 04:01:00,
2013-08-13 00:06:00,65.9,57.7,29.92,North,0,0.0,0.0,75,0.00,,,0.00,WUHU216HW,2013-08-13 04:06:00,
2013-08-13 00:11:00,65.5,57.8,29.92,North,0,0.0,0.0,76,0.00,,,0.00,WUHU216HW,2013-08-13 04:11:00,
2013-08-13 00:16:00,65.3,57.6,29.92,North,0,0.0,0.0,76,0.00,,,0.00,WUHU216HW,2013-08-13 04:16:00,
2013-08-13 00:21:00,65.2,57.4,29.92,North,0,0.0,0.0,76,0.00,,,0.00,WUHU216HW,2013-08-13 04:21:00,
2013-08-13 00:26:00,64.8,57.4,29.92,North,0,0.0,0.0,77,0.00,,,0.00,WUHU216HW,2013-08-13 04:26:00,
2013-08-13 00:31:00,64.4,57.1,29.92,North,0,0.0,0.0,77,0.00,,,0.00,WUHU216HW,2013-08-13 04:31:00,
2013-08-13 00:36:00,64.3,57.2,29.92,North,0,0.0,0.0,78,0.00,,,0.00,WUHU216HW,2013-08-13 04:36:00,
2013-08-13 00:41:00,64.1,57.1,29.92,North,0,0.0,0.0,78,0.00,,,0.00,WUHU216HW,2013-08-13 04:41:00,
2013-08-13 00:46:00,63.9,57.2,29.92,North,0,0.0,0.0,79,0.00,,,0.00,WUHU216HW,2013-08-13 04:46:00,
2013-08-13 00:51:00,63.7,57.4,29.92,North,0,0.0,0.0,80,0.00,,,0.00,WUHU216HW,2013-08-13 04:51:00,
2013-08-13 00:56:00,63.7,57.4,29.92,North,0,0.0,0.0,80,0.00,,,0.00,WUHU216HW,2013-08-13 04:56:00,
2013-08-13 01:01:00,63.7,57.1,29.92,North,0,0.0,0.0,79,0.00,,,0.00,WUHU216HW,2013-08-13 05:01:00,
2013-08-13 01:06:00,63.5,56.9,29.92,North,0,0.0,0.0,79,0.00,,,0.00,WUHU216HW,2013-08-13 05:06:00,
2013-08-13 01:11:00,63.5,56.9,29.91,North,0,0.0,0.0,79,0.00,,,0.00,WUHU216HW,2013-08-13 05:11:00,
2013-08-13 01:16:00,63.5,56.9,29.91,North,0,0.0,0.0,79,0.00,,,0.00,WUHU216HW,2013-08-13 05:16:00,
2013-08-13 01:21:00,63.7,57.1,29.91,North,0,0.0,0.0,79,0.00,,,0.00,WUHU216HW,2013-08-13 05:21:00,
2013-08-13 01:26:00,64.3,58.7,29.91,North,0,0.0,0.0,82,0.00,,,0.00,WUHU216HW,2013-08-13 05:26:00,
2013-08-13 01:31:00,65.5,59.9,29.91,North,0,0.0,0.0,82,0.00,,,0.00,WUHU216HW,2013-08-13 05:31:00,
2013-08-13 01:36:00,65.5,59.2,29.91,North,0,0.0,0.0,80,0.00,,,0.00,WUHU216HW,2013-08-13 05:36:00,
2013-08-13 01:41:00,65.2,58.9,29.91,North,0,0.0,0.0,80,0.00,,,0.00,WUHU216HW,2013-08-13 05:41:00,
2013-08-13 01:46:00,65.0,58.7,29.91,North,0,0.0,0.0,80,0.00,,,0.00,WUHU216HW,2013-08-13 05:46:00,
2013-08-13 01:51:00,64.8,58.5,29.91,North,0,0.0,0.0,80,0.00,,,0.00,WUHU216HW,2013-08-13 05:51:00,
2013-08-13 01:56:00,64.4,58.1,29.91,North,0,0.0,0.0,80,0.00,,,0.00,WUHU216HW,2013-08-13 05:56:00,
2013-08-13 02:01:00,64.3,58.0,29.90,North,0,0.0,0.0,80,0.00,,,0.00,WUHU216HW,2013-08-13 06:01:00,
2013-08-13 02:06:00,64.1,57.4,29.90,North,0,0.0,0.0,79,0.00,,,0.00,WUHU216HW,2013-08-13 06:06:00,
2013-08-13 02:11:00,64.1,57.8,29.90,North,0,0.0,0.0,80,0.00,,,0.00,WUHU216HW,2013-08-13 06:11:00,
2013-08-13 02:16:00,64.1,58.2,29.90,North,0,0.0,0.0,81,0.00,,,0.00,WUHU216HW,2013-08-13 06:16:00,
2013-08-13 02:21:00,64.3,58.3,29.89,North,0,0.0,0.0,81,0.00,,,0.00,WUHU216HW,2013-08-13 06:21:00,
2013-08-13 02:26:00,64.3,58.3,29.89,North,0,0.0,0.0,81,0.00,,,0.00,WUHU216HW,2013-08-13 06:26:00,
2013-08-13 02:31:00,64.3,58.3,29.89,North,0,0.0,0.0,81,0.00,,,0.00,WUHU216HW,2013-08-13 06:31:00,
2013-08-13 02:36:00,64.1,57.8,29.89,North,0,0.0,0.0,80,0.00,,,0.00,WUHU216HW,2013-08-13 06:36:00,
2013-08-13 02:41:00,64.1,57.8,29.89,North,0,0.0,0.0,80,0.00,,,0.00,WUHU216HW,2013-08-13 06:41:00,
2013-08-13 03:00:00,64.1,58.2,29.89,North,0,0.0,0.0,81,0.00,,,0.00,WUHU216HW,2013-08-13 07:00:00,
2013-08-13 03:05:00,63.9,58.0,29.88,North,0,0.0,0.0,81,0.00,,,0.00,WUHU216HW,2013-08-13 07:05:00,
2013-08-13 03:10:00,63.7,57.8,29.88,North,0,0.0,0.0,81,0.00,,,0.00,WUHU216HW,2013-08-13 07:10:00,
2013-08-13 03:15:00,63.7,58.2,29.88,North,0,0.0,0.0,82,0.00,,,0.00,WUHU216HW,2013-08-13 07:15:00,
2013-08-13 03:20:00,63.5,58.0,29.89,North,0,0.0,0.0,82,0.00,,,0.00,WUHU216HW,2013-08-13 07:20:00,
2013-08-13 03:25:00,63.2,57.6,29.88,North,0,0.0,0.0,82,0.00,,,0.00,WUHU216HW,2013-08-13 07:25:00,
2013-08-13 03:30:00,63.0,57.4,29.87,North,0,0.0,0.0,82,0.00,,,0.00,WUHU216HW,2013-08-13 07:30:00,
2013-08-13 03:35:00,63.0,57.7,29.88,North,0,0.0,0.0,83,0.00,,,0.00,WUHU216HW,2013-08-13 07:35:00,
2013-08-13 03:40:00,63.0,57.7,29.88,North,0,0.0,0.0,83,0.00,,,0.00,WUHU216HW,2013-08-13 07:40:00,
2013-08-13 03:45:00,63.0,57.7,29.88,North,0,0.0,0.0,83,0.00,,,0.00,WUHU216HW,2013-08-13 07:45:00,
2013-08-13 03:50:00,63.0,57.7,29.88,North,0,0.0,0.0,83,0.00,,,0.00,WUHU216HW,2013-08-13 07:50:00,
2013-08-13 03:55:00,63.0,57.7,29.87,North,0,0.0,0.0,83,0.00,,,0.00,WUHU216HW,2013-08-13 07:55:00,
2013-08-13 04:00:00,63.0,57.7,29.87,North,0,0.0,0.0,83,0.00,,,0.00,WUHU216HW,2013-08-13 08:00:00,
2013-08-13 04:05:00,63.2,57.9,29.87,North,0,0.0,0.0,83,0.00,,,0.00,WUHU216HW,2013-08-13 08:05:00,
2013-08-13 04:10:00,63.7,59.1,29.87,North,0,0.0,0.0,85,0.00,,,0.00,WUHU216HW,2013-08-13 08:10:00,
2013-08-13 04:15:00,64.1,59.1,29.87,North,0,0.0,0.0,84,0.00,,,0.00,WUHU216HW,2013-08-13 08:15:00,
2013-08-13 04:20:00,64.1,58.8,29.87,North,0,0.0,0.0,83,0.00,,,0.00,WUHU216HW,2013-08-13 08:20:00,
2013-08-13 04:25:00,63.9,58.6,29.87,North,0,0.0,0.0,83,0.00,,,0.00,WUHU216HW,2013-08-13 08:25:00,
2013-08-13 04:30:00,63.7,58.4,29.87,North,0,0.0,0.0,83,0.00,,,0.00,WUHU216HW,2013-08-13 08:30:00,
2013-08-13 04:35:00,63.7,58.4,29.87,North,0,0.0,0.0,83,0.00,,,0.00,WUHU216HW,2013-08-13 08:35:00,
2013-08-13 04:40:00,63.5,58.2,29.87,North,0,0.0,0.0,83,0.00,,,0.00,WUHU216HW,2013-08-13 08:40:00,
2013-08-13 04:45:00,63.5,58.2,29.87,North,0,0.0,0.0,83,0.00,,,0.00,WUHU216HW,2013-08-13 08:45:00,
2013-08-13 04:50:00,63.5,58.2,29.87,North,0,0.0,0.0,83,0.00,,,0.00,WUHU216HW,2013-08-13 08:50:00,
2013-08-13 04:55:00,63.5,58.2,29.86,North,0,0.0,0.0,83,0.00,,,0.00,WUHU216HW,2013-08-13 08:55:00,
2013-08-13 05:00:00,63.4,58.1,29.86,North,0,0.0,0.0,83,0.00,,,0.00,WUHU216HW,2013-08-13 09:00:00,
2013-08-13 05:05:00,63.4,58.1,29.86,North,0,0.0,0.0,83,0.00,,,0.00,WUHU216HW,2013-08-13 09:05:00,
2013-08-13 06:00:00,63.4,58.4,29.88,North,0,0.0,0.0,84,0.00,,,0.00,WUHU216HW,2013-08-13 10:00:00,
2013-08-13 06:05:00,63.0,58.1,29.87,North,0,0.0,0.0,84,0.00,,,0.00,WUHU216HW,2013-08-13 10:05:00,
2013-08-13 06:10:00,63.0,58.1,29.87,North,0,0.0,0.0,84,0.00,,,0.00,WUHU216HW,2013-08-13 10:10:00,
2013-08-13 06:15:00,62.8,57.9,29.87,North,0,0.0,0.0,84,0.00,,,0.00,WUHU216HW,2013-08-13 10:15:00,
2013-08-13 06:20:00,62.8,58.2,29.87,North,0,0.0,0.0,85,0.00,,,0.00,WUHU216HW,2013-08-13 10:20:00,
2013-08-13 06:25:00,63.0,58.4,29.86,North,0,0.0,0.0,85,0.00,,,0.00,WUHU216HW,2013-08-13 10:25:00,
2013-08-13 06:29:00,63.0,58.4,29.86,North,0,0.0,0.0,85,0.00,,,0.00,WUHU216HW,2013-08-13 10:29:00,
2013-08-13 06:35:00,63.0,58.4,29.87,North,0,0.0,0.0,85,0.00,,,0.00,WUHU216HW,2013-08-13 10:35:00,
2013-08-13 06:40:00,63.0,58.8,29.87,North,0,0.0,0.0,86,0.00,,,0.00,WUHU216HW,2013-08-13 10:40:00,
2013-08-13 06:45:00,62.8,58.6,29.86,North,0,0.0,0.0,86,0.00,,,0.00,WUHU216HW,2013-08-13 10:45:00,
2013-08-13 06:49:00,62.8,58.6,29.87,North,0,0.0,0.0,86,0.00,,,0.00,WUHU216HW,2013-08-13 10:49:00,
2013-08-13 06:55:00,63.0,58.8,29.87,North,0,0.0,0.0,86,0.00,,,0.00,WUHU216HW,2013-08-13 10:55:00,
2013-08-13 06:59:00,63.2,59.0,29.87,North,0,0.0,0.0,86,0.00,,,0.00,WUHU216HW,2013-08-13 10:59:00,
2013-08-13 07:05:00,63.4,59.1,29.87,North,0,0.0,0.0,86,0.00,,,0.00,WUHU216HW,2013-08-13 11:05:00,
2013-08-13 07:09:00,63.7,59.5,29.87,North,0,0.0,0.0,86,0.00,,,0.00,WUHU216HW,2013-08-13 11:09:00,
2013-08-13 07:14:00,63.9,59.7,29.86,North,0,0.0,0.0,86,0.00,,,0.00,WUHU216HW,2013-08-13 11:14:00,
2013-08-13 07:19:00,64.3,60.0,29.87,North,0,0.0,0.0,86,0.00,,,0.00,WUHU216HW,2013-08-13 11:19:00,
2013-08-13 07:24:00,64.4,60.2,29.87,North,0,0.0,0.0,86,0.00,,,0.00,WUHU216HW,2013-08-13 11:24:00,
2013-08-13 07:29:00,64.8,60.6,29.86,North,0,0.0,0.0,86,0.00,,,0.00,WUHU216HW,2013-08-13 11:29:00,
2013-08-13 07:34:00,65.2,60.8,29.86,North,0,0.0,0.0,86,0.00,,,0.00,WUHU216HW,2013-08-13 11:34:00,
2013-08-13 07:39:00,65.5,61.6,29.86,North,0,0.0,0.0,87,0.00,,,0.00,WUHU216HW,2013-08-13 11:39:00,
2013-08-13 07:44:00,65.9,61.8,29.86,North,0,0.0,0.0,87,0.00,,,0.00,WUHU216HW,2013-08-13 11:44:00,
2013-08-13 07:49:00,65.9,61.6,29.86,North,0,0.0,0.0,86,0.00,,,0.00,WUHU216HW,2013-08-13 11:49:00,
2013-08-13 07:54:00,65.9,61.6,29.86,North,0,0.0,0.0,86,0.00,,,0.00,WUHU216HW,2013-08-13 11:54:00,
2013-08-13 08:00:00,65.7,61.4,29.86,North,0,0.0,0.0,86,0.00,,,0.00,WUHU216HW,2013-08-13 12:00:00,
2013-08-13 08:05:00,65.5,60.8,29.86,North,0,0.0,0.0,85,0.00,,,0.00,WUHU216HW,2013-08-13 12:05:00,
2013-08-13 08:10:00,65.3,60.8,29.86,North,0,0.0,0.0,85,0.00,,,0.00,WUHU216HW,2013-08-13 12:10:00,
2013-08-13 08:15:00,65.3,60.8,29.85,North,0,0.0,0.0,85,0.00,,,0.00,WUHU216HW,2013-08-13 12:15:00,
2013-08-13 08:20:00,65.2,60.6,29.85,North,0,0.0,0.0,85,0.00,,,0.00,WUHU216HW,2013-08-13 12:20:00,
2013-08-13 08:25:00,65.0,60.4,29.85,North,0,0.0,0.0,85,0.00,,,0.00,WUHU216HW,2013-08-13 12:25:00,
2013-08-13 08:30:00,65.3,61.0,29.85,North,0,0.0,0.0,86,0.00,,,0.00,WUHU216HW,2013-08-13 12:30:00,
2013-08-13 08:35:00,65.9,61.2,29.85,North,0,0.0,0.0,85,0.00,,,0.00,WUHU216HW,2013-08-13 12:35:00,
2013-08-13 08:40:00,66.6,61.9,29.85,North,0,0.0,0.0,85,0.00,,,0.00,WUHU216HW,2013-08-13 12:40:00,
2013-08-13 08:45:00,67.1,62.5,29.84,North,0,0.0,0.0,85,0.00,,,0.00,WUHU216HW,2013-08-13 12:45:00,
2013-08-13 08:50:00,67.3,62.3,29.84,North,0,0.0,0.0,84,0.00,,,0.00,WUHU216HW,2013-08-13 12:50:00,
2013-08-13 08:55:00,67.5,62.2,29.84,North,0,0.0,0.0,83,0.00,,,0.00,WUHU216HW,2013-08-13 12:55:00,
2013-08-13 09:00:00,67.5,62.2,29.84,North,0,0.0,0.0,83,0.00,,,0.00,WUHU216HW,2013-08-13 13:00:00,
2013-08-13 09:05:00,67.3,62.0,29.84,North,0,0.0,0.0,83,0.00,,,0.00,WUHU216HW,2013-08-13 13:05:00,
2013-08-13 09:10:00,67.5,61.8,29.84,North,0,0.0,0.0,82,0.00,,,0.00,WUHU216HW,2013-08-13 13:10:00,
2013-08-13 09:15:00,67.9,62.2,29.84,North,0,0.0,0.0,82,0.00,,,0.00,WUHU216HW,2013-08-13 13:15:00,
2013-08-13 09:20:00,67.9,62.2,29.84,North,0,0.0,0.0,82,0.00,,,0.00,WUHU216HW,2013-08-13 13:20:00,
2013-08-13 09:25:00,67.1,61.5,29.84,North,0,0.0,0.0,82,0.00,,,0.00,WUHU216HW,2013-08-13 13:25:00,
2013-08-13 09:30:00,66.6,60.9,29.84,North,0,0.0,0.0,82,0.00,,,0.00,WUHU216HW,2013-08-13 13:30:00,
2013-08-13 09:35:00,66.2,60.9,29.84,North,0,0.0,0.0,83,0.00,,,0.00,WUHU216HW,2013-08-13 13:35:00,
2013-08-13 09:40:00,65.9,60.9,29.84,North,0,0.0,0.0,84,0.00,,,0.00,WUHU216HW,2013-08-13 13:40:00,
2013-08-13 09:45:00,65.7,60.8,29.84,North,0,0.0,0.0,84,0.00,,,0.00,WUHU216HW,2013-08-13 13:45:00,
2013-08-13 09:50:00,65.7,60.8,29.84,North,0,0.0,0.0,84,0.00,,,0.00,WUHU216HW,2013-08-13 13:50:00,
2013-08-13 09:55:00,65.9,60.9,29.84,North,0,0.0,0.0,84,0.00,,,0.00,WUHU216HW,2013-08-13 13:55:00,
2013-08-13 10:00:00,65.9,61.2,29.84,North,0,0.0,0.0,85,0.00,,,0.00,WUHU216HW,2013-08-13 14:00:00,
2013-08-13 10:05:00,65.9,61.2,29.84,North,0,0.0,0.0,85,0.00,,,0.00,WUHU216HW,2013-08-13 14:05:00,
2013-08-13 10:10:00,65.9,61.2,29.84,North,0,0.0,0.0,85,0.00,,,0.00,WUHU216HW,2013-08-13 14:10:00,
2013-08-13 10:15:00,66.1,61.8,29.85,North,0,0.0,0.0,86,0.00,,,0.00,WUHU216HW,2013-08-13 14:15:00,
2013-08-13 10:20:00,66.1,61.8,29.84,North,0,0.0,0.0,86,0.00,,,0.00,WUHU216HW,2013-08-13 14:20:00,
2013-08-13 10:25:00,66.2,61.9,29.84,North,0,0.0,0.0,86,0.00,,,0.00,WUHU216HW,2013-08-13 14:25:00,
2013-08-13 10:30:00,66.2,61.9,29.84,North,0,0.0,0.0,86,0.00,,,0.00,WUHU216HW,2013-08-13 14:30:00,
2013-08-13 10:35:00,66.2,61.9,29.85,North,0,0.0,0.0,86,0.00,,,0.00,WUHU216HW,2013-08-13 14:35:00,
2013-08-13 10:40:00,66.2,61.9,29.85,North,0,0.0,0.0,86,0.00,,,0.00,WUHU216HW,2013-08-13 14:40:00,
2013-08-13 10:45:00,66.4,62.1,29.85,North,0,0.0,0.0,86,0.00,,,0.00,WUHU216HW,2013-08-13 14:45:00,
2013-08-13 10:50:00,66.6,62.3,29.85,North,0,0.0,0.0,86,0.00,,,0.00,WUHU216HW,2013-08-13 14:50:00,
2013-08-13 10:55:00,67.0,62.7,29.85,North,0,0.0,0.0,86,0.00,,,0.00,WUHU216HW,2013-08-13 14:55:00,
2013-08-13 11:00:00,67.0,62.7,29.85,North,0,0.0,0.0,86,0.00,,,0.00,WUHU216HW,2013-08-13 15:00:00,
2013-08-13 11:05:00,67.1,62.8,29.85,North,0,0.0,0.0,86,0.00,,,0.00,WUHU216HW,2013-08-13 15:05:00,
2013-08-13 11:10:00,67.1,62.8,29.85,North,0,0.0,0.0,86,0.00,,,0.00,WUHU216HW,2013-08-13 15:10:00,
2013-08-13 11:15:00,67.0,62.7,29.85,North,0,0.0,0.0,86,0.00,,,0.00,WUHU216HW,2013-08-13 15:15:00,
2013-08-13 11:20:00,66.8,62.7,29.85,North,0,0.0,0.0,87,0.00,,,0.00,WUHU216HW,2013-08-13 15:20:00,
2013-08-13 11:25:00,66.6,62.6,29.85,North,0,0.0,0.0,87,0.00,,,0.00,WUHU216HW,2013-08-13 15:25:00,
2013-08-13 11:30:00,66.6,62.6,29.85,North,0,0.0,0.0,87,0.00,,,0.00,WUHU216HW,2013-08-13 15:30:00,
2013-08-13 11:35:00,66.6,62.6,29.85,North,0,0.0,0.0,87,0.00,,,0.00,WUHU216HW,2013-08-13 15:35:00,
2013-08-13 11:40:00,66.8,62.7,29.85,North,0,0.0,0.0,87,0.00,,,0.00,WUHU216HW,2013-08-13 15:40:00,
2013-08-13 11:45:00,67.0,62.7,29.84,North,0,0.0,0.0,86,0.00,,,0.00,WUHU216HW,2013-08-13 15:45:00,
2013-08-13 11:50:00,67.1,62.8,29.84,North,0,0.0,0.0,86,0.00,,,0.00,WUHU216HW,2013-08-13 15:50:00,
2013-08-13 11:55:00,67.3,62.6,29.84,North,0,0.0,0.0,85,0.00,,,0.00,WUHU216HW,2013-08-13 15:55:00,
2013-08-13 12:00:00,67.3,62.3,29.84,North,0,0.0,0.0,84,0.00,,,0.00,WUHU216HW,2013-08-13 16:00:00,
2013-08-13 12:05:00,67.3,62.3,29.84,North,0,0.0,0.0,84,0.00,,,0.00,WUHU216HW,2013-08-13 16:05:00,
2013-08-13 12:10:00,67.3,62.3,29.84,North,0,0.0,0.0,84,0.00,,,0.00,WUHU216HW,2013-08-13 16:10:00,
2013-08-13 12:15:00,67.7,62.6,29.84,North,0,0.0,0.0,84,0.00,,,0.00,WUHU216HW,2013-08-13 16:15:00,
2013-08-13 12:20:00,68.2,63.2,29.84,North,0,0.0,0.0,84,0.00,,,0.00,WUHU216HW,2013-08-13 16:20:00,
2013-08-13 12:25:00,68.4,63.4,29.84,North,0,0.0,0.0,84,0.00,,,0.00,WUHU216HW,2013-08-13 16:25:00,
2013-08-13 12:30:00,68.4,63.1,29.84,North,0,0.0,0.0,83,0.00,,,0.00,WUHU216HW,2013-08-13 16:30:00,
2013-08-13 12:35:00,68.0,62.7,29.84,North,0,0.0,0.0,83,0.00,,,0.00,WUHU216HW,2013-08-13 16:35:00,
2013-08-13 12:40:00,68.2,62.9,29.83,North,0,0.0,0.0,83,0.00,,,0.00,WUHU216HW,2013-08-13 16:40:00,
2013-08-13 12:45:00,68.6,63.2,29.83,North,0,0.0,0.0,83,0.00,,,0.00,WUHU216HW,2013-08-13 16:45:00,
2013-08-13 12:50:00,68.0,62.4,29.83,North,0,0.0,0.0,82,0.00,,,0.00,WUHU216HW,2013-08-13 16:50:00,
2013-08-13 12:55:00,67.3,62.0,29.83,North,0,0.0,0.0,83,0.00,,,0.00,WUHU216HW,2013-08-13 16:55:00,
2013-08-13 13:00:00,67.0,61.7,29.83,North,0,0.0,0.0,83,0.00,,,0.00,WUHU216HW,2013-08-13 17:00:00,
2013-08-13 13:05:00,66.8,61.7,29.83,North,0,0.0,0.0,84,0.00,,,0.00,WUHU216HW,2013-08-13 17:05:00,
2013-08-13 13:12:00,66.6,61.9,29.83,North,0,0.0,0.0,85,0.00,,,0.00,WUHU216HW,2013-08-13 17:12:00,
2013-08-13 13:17:00,66.2,61.9,29.83,North,0,0.0,0.0,86,0.00,,,0.00,WUHU216HW,2013-08-13 17:17:00,
2013-08-13 13:22:00,66.1,61.8,29.83,North,0,0.0,0.0,86,0.00,,,0.00,WUHU216HW,2013-08-13 17:22:00,
2013-08-13 13:27:00,66.1,61.8,29.83,North,0,0.0,0.0,86,0.00,,,0.00,WUHU216HW,2013-08-13 17:27:00,
2013-08-13 13:32:00,65.9,61.6,29.83,North,0,0.0,0.0,86,0.00,,,0.00,WUHU216HW,2013-08-13 17:32:00,
2013-08-13 13:37:00,65.7,61.8,29.82,North,0,0.0,0.0,87,0.00,,,0.00,WUHU216HW,2013-08-13 17:37:00,
2013-08-13 13:42:00,65.7,61.8,29.82,North,0,0.0,0.0,87,0.00,,,0.00,WUHU216HW,2013-08-13 17:42:00,
2013-08-13 13:47:00,65.5,61.6,29.82,North,0,0.0,0.0,87,0.00,,,0.00,WUHU216HW,2013-08-13 17:47:00,
2013-08-13 13:52:00,65.5,61.6,29.82,North,0,0.0,0.0,87,0.00,,,0.00,WUHU216HW,2013-08-13 17:52:00,
2013-08-13 13:57:00,65.5,61.6,29.82,North,0,0.0,0.0,87,0.00,,,0.00,WUHU216HW,2013-08-13 17:57:00,
2013-08-13 14:02:00,65.7,62.0,29.81,North,0,0.0,0.0,88,0.00,,,0.00,WUHU216HW,2013-08-13 18:02:00,
2013-08-13 14:07:00,66.1,62.4,29.81,North,0,0.0,0.0,88,0.00,,,0.00,WUHU216HW,2013-08-13 18:07:00,
2013-08-13 14:12:00,66.8,62.7,29.81,North,0,0.0,0.0,87,0.00,,,0.00,WUHU216HW,2013-08-13 18:12:00,
2013-08-13 14:17:00,67.3,63.0,29.80,North,0,0.0,0.0,86,0.00,,,0.00,WUHU216HW,2013-08-13 18:17:00,
2013-08-13 14:22:00,67.1,62.8,29.80,North,0,0.0,0.0,86,0.00,,,0.00,WUHU216HW,2013-08-13 18:22:00,
2013-08-13 14:27:00,67.0,62.7,29.81,North,0,0.0,0.0,86,0.00,,,0.00,WUHU216HW,2013-08-13 18:27:00,
2013-08-13 14:32:00,67.0,62.7,29.81,North,0,0.0,0.0,86,0.00,,,0.00,WUHU216HW,2013-08-13 18:32:00,
2013-08-13 14:37:00,67.3,63.0,29.81,North,0,0.0,0.0,86,0.00,,,0.00,WUHU216HW,2013-08-13 18:37:00,
2013-08-13 14:42:00,67.3,62.6,29.80,North,0,0.0,0.0,85,0.00,,,0.00,WUHU216HW,2013-08-13 18:42:00,
2013-08-13 14:47:00,67.0,62.7,29.79,North,0,0.0,0.0,86,0.00,,,0.00,WUHU216HW,2013-08-13 18:47:00,
2013-08-13 14:52:00,67.1,62.8,29.79,North,0,0.0,0.0,86,0.00,,,0.00,WUHU216HW,2013-08-13 18:52:00,
2013-08-13 14:57:00,67.0,62.7,29.79,North,0,0.0,0.0,86,0.00,,,0.00,WUHU216HW,2013-08-13 18:57:00,
2013-08-13 15:02:00,67.1,63.1,29.78,North,0,0.0,0.0,87,0.00,,,0.00,WUHU216HW,2013-08-13 19:02:00,
2013-08-13 15:07:00,67.5,63.5,29.79,North,0,0.0,0.0,87,0.00,,,0.00,WUHU216HW,2013-08-13 19:07:00,
2013-08-13 15:12:00,67.7,63.6,29.78,North,0,0.0,0.0,87,0.00,,,0.00,WUHU216HW,2013-08-13 19:12:00,
2013-08-13 15:17:00,67.5,63.5,29.77,North,0,0.0,0.0,87,0.00,,,0.00,WUHU216HW,2013-08-13 19:17:00,
2013-08-13 15:22:00,67.3,63.3,29.77,North,0,0.0,0.0,87,0.00,,,0.00,WUHU216HW,2013-08-13 19:22:00,
2013-08-13 15:27:00,67.7,64.0,29.77,North,0,0.0,0.0,88,0.00,,,0.00,WUHU216HW,2013-08-13 19:27:00,
2013-08-13 15:32:00,68.0,64.4,29.77,North,0,0.0,0.0,88,0.00,,,0.00,WUHU216HW,2013-08-13 19:32:00,
2013-08-13 15:37:00,68.0,64.4,29.76,North,0,0.0,0.0,88,0.00,,,0.00,WUHU216HW,2013-08-13 19:37:00,
2013-08-13 15:42:00,68.0,64.4,29.76,North,0,0.0,0.0,88,0.00,,,0.00,WUHU216HW,2013-08-13 19:42:00,
2013-08-13 15:47:00,68.0,64.0,29.76,North,0,0.0,0.0,87,0.00,,,0.00,WUHU216HW,2013-08-13 19:47:00,
2013-08-13 15:52:00,68.0,64.0,29.77,North,0,0.0,0.0,87,0.00,,,0.00,WUHU216HW,2013-08-13 19:52:00,
2013-08-13 15:57:00,67.9,63.8,29.76,North,0,0.0,0.0,87,0.00,,,0.00,WUHU216HW,2013-08-13 19:57:00,
2013-08-13 16:02:00,68.0,64.4,29.76,North,0,0.0,0.0,88,0.00,,,0.00,WUHU216HW,2013-08-13 20:02:00,
2013-08-13 16:07:00,68.0,64.4,29.77,North,0,0.0,0.0,88,0.00,,,0.00,WUHU216HW,2013-08-13 20:07:00,
2013-08-13 16:12:00,68.2,64.5,29.77,North,0,0.0,0.0,88,0.00,,,0.00,WUHU216HW,2013-08-13 20:12:00,
2013-08-13 16:17:00,68.2,64.5,29.76,North,0,0.0,0.0,88,0.00,,,0.00,WUHU216HW,2013-08-13 20:17:00,
2013-08-13 16:22:00,68.0,64.4,29.76,North,0,0.0,0.0,88,0.00,,,0.00,WUHU216HW,2013-08-13 20:22:00,
2013-08-13 16:27:00,68.0,64.4,29.76,North,0,0.0,0.0,88,0.00,,,0.00,WUHU216HW,2013-08-13 20:27:00,
2013-08-13 16:32:00,68.4,64.7,29.76,North,0,0.0,0.0,88,0.00,,,0.00,WUHU216HW,2013-08-13 20:32:00,
2013-08-13 16:37:00,68.2,64.5,29.76,North,0,0.0,0.0,88,0.00,,,0.00,WUHU216HW,2013-08-13 20:37:00,
2013-08-13 16:42:00,68.4,64.7,29.76,North,0,0.0,0.0,88,0.00,,,0.00,WUHU216HW,2013-08-13 20:42:00,
2013-08-13 16:47:00,69.3,65.6,29.76,North,0,0.0,0.0,88,0.00,,,0.00,WUHU216HW,2013-08-13 20:47:00,
2013-08-13 16:52:00,69.8,66.1,29.75,North,0,0.0,0.0,88,0.00,,,0.00,WUHU216HW,2013-08-13 20:52:00,
2013-08-13 16:57:00,69.7,65.6,29.75,North,0,0.0,0.0,87,0.00,,,0.00,WUHU216HW,2013-08-13 20:57:00,
2013-08-13 17:02:00,69.1,65.1,29.75,North,0,0.0,0.0,87,0.00,,,0.00,WUHU216HW,2013-08-13 21:02:00,
2013-08-13 17:07:00,68.6,64.5,29.75,North,0,0.0,0.0,87,0.00,,,0.00,WUHU216HW,2013-08-13 21:07:00,
2013-08-13 17:12:00,68.2,64.2,29.75,North,0,0.0,0.0,87,0.00,,,0.00,WUHU216HW,2013-08-13 21:12:00,
2013-08-13 17:17:00,68.0,64.0,29.75,North,0,0.0,0.0,87,0.00,,,0.00,WUHU216HW,2013-08-13 21:17:00,
2013-08-13 17:22:00,67.9,64.2,29.74,North,0,0.0,0.0,88,0.00,,,0.00,WUHU216HW,2013-08-13 21:22:00,
2013-08-13 17:27:00,67.9,64.2,29.74,North,0,0.0,0.0,88,0.00,,,0.00,WUHU216HW,2013-08-13 21:27:00,
2013-08-13 17:32:00,67.9,64.2,29.73,North,0,0.0,0.0,88,0.00,,,0.00,WUHU216HW,2013-08-13 21:32:00,
2013-08-13 17:37:00,67.7,64.0,29.73,North,0,0.0,0.0,88,0.00,,,0.00,WUHU216HW,2013-08-13 21:37:00,
2013-08-13 17:42:00,67.7,64.0,29.74,North,0,0.0,0.0,88,0.00,,,0.00,WUHU216HW,2013-08-13 21:42:00,
2013-08-13 17:47:00,67.7,64.0,29.74,North,0,0.0,0.0,88,0.00,,,0.00,WUHU216HW,2013-08-13 21:47:00,
2013-08-13 17:52:00,68.4,65.0,29.74,North,0,0.0,0.0,89,0.00,,,0.00,WUHU216HW,2013-08-13 21:52:00,
2013-08-13 17:57:00,68.4,64.7,29.74,North,0,0.0,0.0,88,0.00,,,0.00,WUHU216HW,2013-08-13 21:57:00,
2013-08-13 18:02:00,68.0,64.4,29.73,North,0,0.0,0.0,88,0.00,,,0.00,WUHU216HW,2013-08-13 22:02:00,
2013-08-13 18:07:00,67.9,64.2,29.73,North,0,0.0,0.0,88,0.00,,,0.00,WUHU216HW,2013-08-13 22:07:00,
2013-08-13 18:12:00,67.3,63.6,29.73,North,0,0.0,0.0,88,0.00,,,0.00,WUHU216HW,2013-08-13 22:12:00,
2013-08-13 18:17:00,67.1,63.5,29.72,North,0,0.0,0.0,88,0.00,,,0.00,WUHU216HW,2013-08-13 22:17:00,
2013-08-13 18:22:00,67.0,63.3,29.72,North,0,0.0,0.0,88,0.00,,,0.00,WUHU216HW,2013-08-13 22:22:00,
2013-08-13 18:27:00,66.8,63.1,29.72,North,0,0.0,0.0,88,0.00,,,0.00,WUHU216HW,2013-08-13 22:27:00,
2013-08-13 18:32:00,66.6,62.9,29.72,North,0,0.0,0.0,88,0.00,,,0.00,WUHU216HW,2013-08-13 22:32:00,
2013-08-13 18:37:00,66.2,62.8,29.71,North,0,0.0,0.0,89,0.00,,,0.00,WUHU216HW,2013-08-13 22:37:00,
2013-08-13 18:42:00,66.2,62.8,29.71,North,0,0.0,0.0,89,0.00,,,0.00,WUHU216HW,2013-08-13 22:42:00,
2013-08-13 18:47:00,66.2,62.8,29.71,North,0,0.0,0.0,89,0.00,,,0.00,WUHU216HW,2013-08-13 22:47:00,
2013-08-13 18:52:00,65.9,62.6,29.71,North,0,0.0,0.0,89,0.00,,,0.00,WUHU216HW,2013-08-13 22:52:00,
2013-08-13 18:57:00,65.9,62.6,29.71,North,0,0.0,0.0,89,0.00,,,0.00,WUHU216HW,2013-08-13 22:57:00,
2013-08-13 19:02:00,65.7,62.4,29.71,North,0,0.0,0.0,89,0.00,,,0.00,WUHU216HW,2013-08-13 23:02:00,
2013-08-13 19:07:00,65.5,62.2,29.72,North,0,0.0,0.0,89,0.00,,,0.00,WUHU216HW,2013-08-13 23:07:00,
2013-08-13 19:12:00,65.5,62.2,29.72,North,0,0.0,0.0,89,0.00,,,0.00,WUHU216HW,2013-08-13 23:12:00,
2013-08-13 19:17:00,65.5,62.2,29.71,North,0,0.0,0.0,89,0.00,,,0.00,WUHU216HW,2013-08-13 23:17:00,
2013-08-13 19:22:00,66.2,63.5,29.71,North,0,0.0,0.0,91,0.00,,,0.00,WUHU216HW,2013-08-13 23:22:00,
2013-08-13 19:27:00,66.1,63.0,29.71,North,0,0.0,0.0,90,0.00,,,0.00,WUHU216HW,2013-08-13 23:27:00,
2013-08-13 19:32:00,65.9,62.8,29.70,North,0,0.0,0.0,90,0.00,,,0.00,WUHU216HW,2013-08-13 23:32:00,
2013-08-13 19:37:00,65.5,62.2,29.71,North,0,0.0,0.0,89,0.00,,,0.00,WUHU216HW,2013-08-13 23:37:00,
2013-08-13 19:42:00,65.3,62.0,29.71,North,0,0.0,0.0,89,0.00,,,0.00,WUHU216HW,2013-08-13 23:42:00,
2013-08-13 19:47:00,65.3,62.4,29.71,North,0,0.0,0.0,90,0.00,,,0.00,WUHU216HW,2013-08-13 23:47:00,
2013-08-13 19:52:00,65.5,62.6,29.71,North,0,0.0,0.0,90,0.00,,,0.00,WUHU216HW,2013-08-13 23:52:00,
2013-08-13 19:57:00,65.5,62.6,29.70,North,0,0.0,0.0,90,0.00,,,0.00,WUHU216HW,2013-08-13 23:57:00,
2013-08-13 20:02:00,65.2,62.2,29.71,North,0,0.0,0.0,90,0.00,,,0.00,WUHU216HW,2013-08-14 00:02:00,
2013-08-13 20:07:00,65.2,62.2,29.71,North,0,0.0,0.0,90,0.00,,,0.00,WUHU216HW,2013-08-14 00:07:00,
2013-08-13 20:12:00,65.0,62.0,29.71,North,0,0.0,0.0,90,0.00,,,0.00,WUHU216HW,2013-08-14 00:12:00,
2013-08-13 20:17:00,65.2,62.2,29.71,North,0,0.0,0.0,90,0.00,,,0.00,WUHU216HW,2013-08-14 00:17:00,
2013-08-13 20:22:00,65.2,62.2,29.71,North,0,0.0,0.0,90,0.00,,,0.00,WUHU216HW,2013-08-14 00:22:00,
2013-08-13 20:27:00,65.2,62.2,29.71,North,0,0.0,0.0,90,0.00,,,0.00,WUHU216HW,2013-08-14 00:27:00,
2013-08-13 20:32:00,65.2,62.2,29.71,North,0,0.0,0.0,90,0.00,,,0.00,WUHU216HW,2013-08-14 00:32:00,
2013-08-13 20:37:00,65.0,62.0,29.71,North,0,0.0,0.0,90,0.00,,,0.00,WUHU216HW,2013-08-14 00:37:00,
2013-08-13 20:42:00,65.0,62.0,29.71,North,0,0.0,0.0,90,0.00,,,0.00,WUHU216HW,2013-08-14 00:42:00,
2013-08-13 20:47:00,65.2,62.2,29.71,North,0,0.0,0.0,90,0.00,,,0.00,WUHU216HW,2013-08-14 00:47:00,
2013-08-13 20:52:00,65.7,62.7,29.71,North,0,0.0,0.0,90,0.00,,,0.00,WUHU216HW,2013-08-14 00:52:00,
2013-08-13 20:57:00,65.3,62.4,29.72,North,0,0.0,0.0,90,0.00,,,0.00,WUHU216HW,2013-08-14 00:57:00,
2013-08-13 21:02:00,65.2,62.2,29.72,North,0,0.0,0.0,90,0.00,,,0.00,WUHU216HW,2013-08-14 01:02:00,
2013-08-13 21:07:00,64.8,61.9,29.71,North,0,0.0,0.0,90,0.00,,,0.00,WUHU216HW,2013-08-14 01:07:00,
2013-08-13 21:12:00,64.4,61.6,29.71,North,0,0.0,0.0,90,0.00,,,0.00,WUHU216HW,2013-08-14 01:12:00,
2013-08-13 21:17:00,64.4,61.6,29.71,North,0,0.0,0.0,90,0.00,,,0.00,WUHU216HW,2013-08-14 01:17:00,
2013-08-13 21:22:00,64.1,61.2,29.71,North,0,0.0,0.0,90,0.00,,,0.00,WUHU216HW,2013-08-14 01:22:00,
2013-08-13 21:27:00,64.1,61.2,29.70,North,0,0.0,0.0,90,0.00,,,0.00,WUHU216HW,2013-08-14 01:27:00,
2013-08-13 21:32:00,64.1,61.5,29.71,North,0,0.0,0.0,91,0.00,,,0.00,WUHU216HW,2013-08-14 01:32:00,
2013-08-13 21:37:00,64.6,62.0,29.71,North,0,0.0,0.0,91,0.00,,,0.00,WUHU216HW,2013-08-14 01:37:00,
2013-08-13 21:42:00,65.2,62.5,29.71,North,0,0.0,0.0,91,0.00,,,0.00,WUHU216HW,2013-08-14 01:42:00,
2013-08-13 21:47:00,65.2,62.5,29.71,North,0,0.0,0.0,91,0.00,,,0.00,WUHU216HW,2013-08-14 01:47:00,
2013-08-13 21:52:00,65.7,63.3,29.72,North,0,0.0,0.0,92,0.00,,,0.00,WUHU216HW,2013-08-14 01:52:00,
2013-08-13 21:57:00,66.2,63.8,29.71,North,0,0.0,0.0,92,0.00,,,0.00,WUHU216HW,2013-08-14 01:57:00,
2013-08-13 22:02:00,66.6,63.8,29.72,North,0,0.0,0.0,91,0.00,,,0.00,WUHU216HW,2013-08-14 02:02:00,
2013-08-13 22:07:00,66.6,63.8,29.72,North,0,0.0,0.0,91,0.00,,,0.00,WUHU216HW,2013-08-14 02:07:00,
2013-08-13 22:12:00,66.6,63.5,29.71,North,0,0.0,0.0,90,0.00,,,0.00,WUHU216HW,2013-08-14 02:12:00,
2013-08-13 22:17:00,66.4,63.4,29.72,North,0,0.0,0.0,90,0.00,,,0.00,WUHU216HW,2013-08-14 02:17:00,
2013-08-13 22:22:00,66.4,63.4,29.72,North,0,0.0,0.0,90,0.00,,,0.00,WUHU216HW,2013-08-14 02:22:00,
2013-08-13 22:27:00,66.1,63.0,29.72,North,0,0.0,0.0,90,0.00,,,0.00,WUHU216HW,2013-08-14 02:27:00,
2013-08-13 22:32:00,65.7,62.4,29.72,North,0,0.0,0.0,89,0.00,,,0.00,WUHU216HW,2013-08-14 02:32:00,
2013-08-13 22:38:00,65.3,62.0,29.71,North,0,0.0,0.0,89,0.00,,,0.00,WUHU216HW,2013-08-14 02:38:00,
2013-08-13 22:43:00,65.3,62.0,29.71,North,0,0.0,0.0,89,0.00,,,0.00,WUHU216HW,2013-08-14 02:43:00,
2013-08-13 22:48:00,65.5,62.6,29.72,North,0,0.0,0.0,90,0.00,,,0.00,WUHU216HW,2013-08-14 02:48:00,
2013-08-13 22:53:00,65.5,62.6,29.72,North,0,0.0,0.0,90,0.00,,,0.00,WUHU216HW,2013-08-14 02:53:00,
2013-08-13 22:58:00,65.2,62.2,29.72,North,0,0.0,0.0,90,0.00,,,0.00,WUHU216HW,2013-08-14 02:58:00,
2013-08-13 23:03:00,64.8,61.9,29.72,North,0,0.0,0.0,90,0.00,,,0.00,WUHU216HW,2013-08-14 03:03:00,
2013-08-13 23:08:00,64.6,61.8,29.71,North,0,0.0,0.0,90,0.00,,,0.00,WUHU216HW,2013-08-14 03:08:00,
2013-08-13 23:13:00,64.6,61.8,29.71,North,0,0.0,0.0,90,0.00,,,0.00,WUHU216HW,2013-08-14 03:13:00,
2013-08-13 23:18:00,64.4,61.6,29.71,North,0,0.0,0.0,90,0.00,,,0.00,WUHU216HW,2013-08-14 03:18:00,
2013-08-13 23:23:00,64.3,61.4,29.71,North,0,0.0,0.0,90,0.00,,,0.00,WUHU216HW,2013-08-14 03:23:00,
2013-08-13 23:28:00,64.1,61.2,29.70,North,0,0.0,0.0,90,0.00,,,0.00,WUHU216HW,2013-08-14 03:28:00,
2013-08-13 23:33:00,63.9,61.0,29.70,North,0,0.0,0.0,90,0.00,,,0.00,WUHU216HW,2013-08-14 03:33:00,
2013-08-13 23:38:00,63.9,61.0,29.70,North,0,0.0,0.0,90,0.00,,,0.00,WUHU216HW,2013-08-14 03:38:00,
2013-08-13 23:43:00,63.7,60.8,29.70,North,0,0.0,0.0,90,0.00,,,0.00,WUHU216HW,2013-08-14 03:43:00,
2013-08-13 23:48:00,63.7,60.8,29.69,North,0,0.0,0.0,90,0.00,,,0.00,WUHU216HW,2013-08-14 03:48:00,
2013-08-13 23:53:00,63.7,60.8,29.69,North,0,0.0,0.0,90,0.00,,,0.00,WUHU216HW,2013-08-14 03:53:00,
2013-08-13 23:58:00,63.7,60.8,29.69,North,0,0.0,0.0,90,0.00,,,0.00,WUHU216HW,2013-08-14 03:58:00,